Time;durP1;ratioP1;P1;durP2;ratioP2;P2;SDS_P1;SDS_P2;PMS_P1;PMS_P2;Temp;Humidity;BMP_temperature;BMP_pressure;BME280_temperature;BME280_humidity;BME280_pressure;Samples;Min_cycle;Max_cycle;Signal;HPM_P1;HPM_P2
2023/12/05 00:01:42;;;;;;;21.98;11.75;;;;;;;;;;4817657;29;20041;-89
2023/12/05 00:04:08;;;;;;;21.85;11.88;;;;;;;;;;4802439;29;20065;-88
2023/12/05 00:06:36;;;;;;;24.65;12.98;;;;;;;;;;4802263;29;20065;-88
2023/12/05 00:09:02;;;;;;;22.23;12.63;;;;;;;;;;4802234;29;20050;-89
2023/12/05 00:11:28;;;;;;;22.95;12.88;;;;;;;;;;4802671;29;20058;-89
2023/12/05 00:13:54;;;;;;;20.33;12.32;;;;;;;;;;4805557;29;20085;-89
2023/12/05 00:16:20;;;;;;;20.70;11.32;;;;;;;;;;4820663;29;20081;-89
2023/12/05 00:18:49;;;;;;;19.98;11.43;;;;;;;;;;4806028;29;20084;-89
2023/12/05 00:21:15;;;;;;;22.42;12.77;;;;;;;;;;4805524;29;20045;-89
2023/12/05 00:23:41;;;;;;;18.98;11.65;;;;;;;;;;4820569;29;20050;-89
2023/12/05 00:26:08;;;;;;;21.48;12.93;;;;;;;;;;4805626;29;20050;-88
2023/12/05 00:28:34;;;;;;;18.08;11.20;;;;;;;;;;4820885;29;20088;-88
2023/12/05 00:31:00;;;;;;;19.05;11.98;;;;;;;;;;4821150;29;20160;-89
2023/12/05 00:33:26;;;;;;;21.08;11.70;;;;;;;;;;4805883;29;20413;-89
2023/12/05 00:35:52;;;;;;;21.98;13.07;;;;;;;;;;4805643;29;20137;-89
2023/12/05 00:38:18;;;;;;;22.65;12.88;;;;;;;;;;4820698;29;20621;-89
2023/12/05 00:40:44;;;;;;;21.25;11.95;;;;;;;;;;4831467;29;20046;-89
2023/12/05 00:43:10;;;;;;;23.25;13.77;;;;;;;;;;4820850;29;20054;-88
2023/12/05 00:45:36;;;;;;;22.98;13.30;;;;;;;;;;4836185;29;20756;-88
2023/12/05 00:48:02;;;;;;;21.60;12.90;;;;;;;;;;4820319;29;20053;-89
2023/12/05 00:50:28;;;;;;;19.60;12.38;;;;;;;;;;4835703;29;20056;-88
2023/12/05 00:52:54;;;;;;;19.75;12.80;;;;;;;;;;4836222;29;20037;-88
2023/12/05 00:55:20;;;;;;;20.75;12.60;;;;;;;;;;4836027;29;20783;-89
2023/12/05 00:57:47;;;;;;;18.95;12.02;;;;;;;;;;4820862;29;20046;-89
2023/12/05 01:00:13;;;;;;;21.70;13.75;;;;;;;;;;4835734;29;20069;-89
2023/12/05 01:02:39;;;;;;;22.08;12.77;;;;;;;;;;4820426;29;20428;-88
2023/12/05 01:05:08;;;;;;;18.10;11.27;;;;;;;;;;4835491;29;20185;-89
2023/12/05 01:07:35;;;;;;;17.00;9.90;;;;;;;;;;4828237;29;20069;-87
2023/12/05 01:10:01;;;;;;;18.92;11.98;;;;;;;;;;4805406;29;20165;-89
2023/12/05 01:12:26;;;;;;;21.52;12.20;;;;;;;;;;4820455;29;20845;-89
2023/12/05 01:14:52;;;;;;;20.00;12.35;;;;;;;;;;4820146;29;20054;-89
2023/12/05 01:17:19;;;;;;;22.88;13.30;;;;;;;;;;4819765;29;20131;-89
2023/12/05 01:19:45;;;;;;;21.92;14.32;;;;;;;;;;4820181;29;20054;-88
2023/12/05 01:22:10;;;;;;;19.33;12.63;;;;;;;;;;4819912;29;20436;-88
2023/12/05 01:24:36;;;;;;;18.15;10.90;;;;;;;;;;4820775;29;20095;-89
2023/12/05 01:27:03;;;;;;;21.08;13.38;;;;;;;;;;4801374;29;20046;-88
2023/12/05 01:29:29;;;;;;;21.63;13.23;;;;;;;;;;4813571;29;20102;-89
2023/12/05 01:31:55;;;;;;;22.88;13.23;;;;;;;;;;4804120;29;20046;-88
2023/12/05 01:34:21;;;;;;;23.02;13.10;;;;;;;;;;4819064;29;20054;-88
2023/12/05 01:36:47;;;;;;;20.67;13.10;;;;;;;;;;4819207;29;20046;-89
2023/12/05 01:39:13;;;;;;;21.70;13.65;;;;;;;;;;4804450;29;20498;-89
2023/12/05 01:41:40;;;;;;;20.23;12.25;;;;;;;;;;4804064;29;20054;-88
2023/12/05 01:44:06;;;;;;;21.90;13.13;;;;;;;;;;4819469;29;20053;-88
2023/12/05 01:46:32;;;;;;;23.33;12.18;;;;;;;;;;4804203;29;20060;-88
2023/12/05 01:48:59;;;;;;;20.33;12.75;;;;;;;;;;4804411;29;20054;-89
2023/12/05 01:51:26;;;;;;;20.60;12.95;;;;;;;;;;4803989;29;20049;-88
2023/12/05 01:53:52;;;;;;;19.88;12.70;;;;;;;;;;4804145;29;20518;-89
2023/12/05 01:56:18;;;;;;;23.38;14.57;;;;;;;;;;4819088;29;20053;-88
2023/12/05 01:58:44;;;;;;;23.40;14.65;;;;;;;;;;4819539;29;20104;-89
2023/12/05 02:01:11;;;;;;;18.70;13.98;;;;;;;;;;4823787;29;20046;-88
2023/12/05 02:03:39;;;;;;;25.80;13.40;;;;;;;;;;4835056;29;20057;-89
2023/12/05 02:06:05;;;;;;;22.58;13.70;;;;;;;;;;4834854;29;20058;-88
2023/12/05 02:08:32;;;;;;;24.77;15.18;;;;;;;;;;4834876;29;20068;-89
2023/12/05 02:10:58;;;;;;;25.17;14.10;;;;;;;;;;4834906;29;20061;-89
2023/12/05 02:13:24;;;;;;;23.73;14.77;;;;;;;;;;4819165;29;20959;-90
2023/12/05 02:15:55;;;;;;;24.27;14.10;;;;;;;;;;4812496;29;20112;-88
2023/12/05 02:18:23;;;;;;;22.92;14.98;;;;;;;;;;4805974;29;20544;-89
2023/12/05 02:20:56;;;;;;;22.98;15.20;;;;;;;;;;4804362;29;20102;-88
2023/12/05 02:23:37;;;;;;;27.35;16.25;;;;;;;;;;4819100;29;20050;-89
2023/12/05 02:26:06;;;;;;;24.98;15.80;;;;;;;;;;4806702;29;20141;-89
2023/12/05 02:28:33;;;;;;;27.63;16.20;;;;;;;;;;4799720;29;20144;-89
2023/12/05 02:30:59;;;;;;;26.98;15.77;;;;;;;;;;4804056;29;21591;-89
2023/12/05 02:33:25;;;;;;;23.27;14.63;;;;;;;;;;4834158;29;20065;-89
2023/12/05 02:35:58;;;;;;;26.42;15.43;;;;;;;;;;4833558;29;20050;-89
2023/12/05 02:38:30;;;;;;;27.20;14.95;;;;;;;;;;4831339;29;20046;-89
2023/12/05 02:41:00;;;;;;;23.90;15.15;;;;;;;;;;4809848;29;20056;-89
2023/12/05 02:43:31;;;;;;;24.48;15.35;;;;;;;;;;4818869;29;20076;-88
2023/12/05 02:45:58;;;;;;;24.05;14.70;;;;;;;;;;4803240;29;20053;-89
2023/12/05 02:48:24;;;;;;;24.05;15.18;;;;;;;;;;4818466;29;20129;-88
2023/12/05 02:50:52;;;;;;;25.27;15.65;;;;;;;;;;4818288;29;20045;-88
2023/12/05 02:53:18;;;;;;;22.88;15.50;;;;;;;;;;4802785;29;20126;-88
2023/12/05 02:55:46;;;;;;;26.85;16.63;;;;;;;;;;4818372;29;20046;-89
2023/12/05 02:58:12;;;;;;;25.13;15.68;;;;;;;;;;4818496;29;20065;-89
2023/12/05 03:00:38;;;;;;;25.63;15.95;;;;;;;;;;4803154;29;20149;-88
2023/12/05 03:03:04;;;;;;;24.45;15.77;;;;;;;;;;4829786;29;20159;-88
2023/12/05 03:05:30;;;;;;;27.25;16.05;;;;;;;;;;4833853;29;20550;-89
2023/12/05 03:07:56;;;;;;;26.27;16.00;;;;;;;;;;4832910;29;20088;-88
2023/12/05 03:10:22;;;;;;;24.05;15.65;;;;;;;;;;4818237;29;20195;-88
2023/12/05 03:12:48;;;;;;;24.90;16.00;;;;;;;;;;4818143;29;20508;-88
2023/12/05 03:15:14;;;;;;;25.13;16.55;;;;;;;;;;4818434;29;20152;-89
2023/12/05 03:17:40;;;;;;;25.00;16.27;;;;;;;;;;4820885;29;20440;-90
2023/12/05 03:20:07;;;;;;;27.20;16.23;;;;;;;;;;4802890;29;20057;-89
2023/12/05 03:22:33;;;;;;;26.42;16.05;;;;;;;;;;4802876;29;20061;-89
2023/12/05 03:24:59;;;;;;;27.27;15.93;;;;;;;;;;4817641;29;20865;-89
2023/12/05 03:27:25;;;;;;;26.25;16.50;;;;;;;;;;4793077;29;20417;-88
2023/12/05 03:29:51;;;;;;;26.17;15.85;;;;;;;;;;4830112;29;20137;-89
2023/12/05 03:32:17;;;;;;;26.60;16.83;;;;;;;;;;4835916;29;20060;-88
2023/12/05 03:34:43;;;;;;;24.35;15.55;;;;;;;;;;4835961;29;20041;-88
2023/12/05 03:37:09;;;;;;;26.17;16.42;;;;;;;;;;4836166;29;20046;-88
2023/12/05 03:39:35;;;;;;;26.13;15.63;;;;;;;;;;4820945;29;20060;-88
2023/12/05 03:42:01;;;;;;;25.27;16.65;;;;;;;;;;4835705;29;20662;-89
2023/12/05 03:44:27;;;;;;;25.08;16.52;;;;;;;;;;4820775;29;20595;-89
2023/12/05 03:46:53;;;;;;;25.40;16.08;;;;;;;;;;4807614;29;20136;-88
2023/12/05 03:49:19;;;;;;;28.42;17.08;;;;;;;;;;4813414;29;20058;-89
2023/12/05 03:51:45;;;;;;;26.60;16.00;;;;;;;;;;4812080;29;20636;-88
2023/12/05 03:54:11;;;;;;;27.00;15.75;;;;;;;;;;4806370;29;20881;-89
2023/12/05 03:56:37;;;;;;;28.23;17.50;;;;;;;;;;4826333;29;20045;-89
2023/12/05 03:59:03;;;;;;;28.23;16.88;;;;;;;;;;4839861;29;20137;-89
2023/12/05 04:01:29;;;;;;;28.50;16.73;;;;;;;;;;4839491;29;20132;-89
2023/12/05 04:03:55;;;;;;;32.45;17.88;;;;;;;;;;4839702;29;20045;-89
2023/12/05 04:06:22;;;;;;;29.35;16.65;;;;;;;;;;4816548;29;20100;-88
2023/12/05 04:08:48;;;;;;;26.38;17.27;;;;;;;;;;4821541;29;20115;-88
2023/12/05 04:11:14;;;;;;;27.75;16.38;;;;;;;;;;4806069;29;20049;-89
2023/12/05 04:13:40;;;;;;;28.17;16.90;;;;;;;;;;4829423;29;20050;-89
2023/12/05 04:16:07;;;;;;;29.48;17.38;;;;;;;;;;4821084;29;20195;-88
2023/12/05 04:18:33;;;;;;;27.48;15.98;;;;;;;;;;4821292;29;20046;-88
2023/12/05 04:20:59;;;;;;;30.13;17.90;;;;;;;;;;4836294;29;20061;-88
2023/12/05 04:23:25;;;;;;;27.70;16.33;;;;;;;;;;4821166;29;20416;-89
2023/12/05 04:25:51;;;;;;;26.80;17.58;;;;;;;;;;4825762;29;20042;-89
2023/12/05 04:28:17;;;;;;;32.20;18.73;;;;;;;;;;4805772;29;20053;-89
2023/12/05 04:30:43;;;;;;;30.42;18.98;;;;;;;;;;4805743;29;20194;-89
2023/12/05 04:33:09;;;;;;;31.27;17.92;;;;;;;;;;4825090;29;20160;-88
2023/12/05 04:35:38;;;;;;;33.35;18.92;;;;;;;;;;4828403;29;20181;-88
2023/12/05 04:38:04;;;;;;;30.40;18.50;;;;;;;;;;4805970;29;20076;-88
2023/12/05 04:40:30;;;;;;;33.40;18.45;;;;;;;;;;4813898;29;20408;-88
2023/12/05 04:42:56;;;;;;;30.35;19.23;;;;;;;;;;4805309;29;20050;-88
2023/12/05 04:45:22;;;;;;;35.55;18.85;;;;;;;;;;4820487;29;20387;-88
2023/12/05 04:47:48;;;;;;;33.67;19.98;;;;;;;;;;4820235;29;20049;-89
2023/12/05 04:50:14;;;;;;;31.80;19.63;;;;;;;;;;4809488;29;20100;-88
2023/12/05 04:52:40;;;;;;;33.85;20.63;;;;;;;;;;4813265;29;20117;-89
2023/12/05 04:55:07;;;;;;;33.78;18.55;;;;;;;;;;4805325;29;20783;-89
2023/12/05 04:57:33;;;;;;;30.92;18.70;;;;;;;;;;4819570;29;20296;-88
2023/12/05 04:59:59;;;;;;;34.30;18.80;;;;;;;;;;4821002;29;20809;-89
2023/12/05 05:02:25;;;;;;;30.20;18.58;;;;;;;;;;4817191;29;20042;-89
2023/12/05 05:04:51;;;;;;;33.95;20.33;;;;;;;;;;4819944;29;20046;-88
2023/12/05 05:07:17;;;;;;;35.75;20.27;;;;;;;;;;4814494;29;20069;-88
2023/12/05 05:09:43;;;;;;;36.38;20.38;;;;;;;;;;4809749;29;20429;-88
2023/12/05 05:12:09;;;;;;;33.17;19.13;;;;;;;;;;4805048;29;20054;-89
2023/12/05 05:14:36;;;;;;;34.25;20.30;;;;;;;;;;4804682;29;20061;-89
2023/12/05 05:17:03;;;;;;;34.72;21.05;;;;;;;;;;4804530;29;20826;-89
2023/12/05 05:19:29;;;;;;;34.55;19.20;;;;;;;;;;4804575;29;20086;-88
2023/12/05 05:21:57;;;;;;;35.70;20.27;;;;;;;;;;4819821;29;20053;-89
2023/12/05 05:24:23;;;;;;;37.15;19.40;;;;;;;;;;4819448;29;20050;-89
2023/12/05 05:26:49;;;;;;;37.00;19.52;;;;;;;;;;4804341;29;20508;-89
2023/12/05 05:29:15;;;;;;;35.10;20.75;;;;;;;;;;4819471;29;20140;-89
2023/12/05 05:31:41;;;;;;;36.13;20.50;;;;;;;;;;4819495;29;20106;-88
2023/12/05 05:34:07;;;;;;;32.53;19.70;;;;;;;;;;4834427;29;20157;-88
2023/12/05 05:36:33;;;;;;;34.08;19.77;;;;;;;;;;4819446;29;20050;-88
2023/12/05 05:39:00;;;;;;;36.78;21.40;;;;;;;;;;4834470;29;20106;-88
2023/12/05 05:41:26;;;;;;;37.03;20.73;;;;;;;;;;4818956;29;20041;-89
2023/12/05 05:43:52;;;;;;;36.05;19.92;;;;;;;;;;4832026;29;20428;-88
2023/12/05 05:46:18;;;;;;;36.85;20.20;;;;;;;;;;4819211;29;20106;-88
2023/12/05 05:48:45;;;;;;;34.65;19.83;;;;;;;;;;4819245;29;20891;-89
2023/12/05 05:51:11;;;;;;;33.22;20.40;;;;;;;;;;4832153;29;20049;-88
2023/12/05 05:53:37;;;;;;;36.78;20.55;;;;;;;;;;4813553;29;20085;-88
2023/12/05 05:56:03;;;;;;;34.58;20.48;;;;;;;;;;4822493;29;20056;-88
2023/12/05 05:58:29;;;;;;;33.75;19.88;;;;;;;;;;4837831;29;20057;-89
2023/12/05 06:00:55;;;;;;;36.80;20.23;;;;;;;;;;4828623;29;20061;-88
2023/12/05 06:03:22;;;;;;;36.80;19.52;;;;;;;;;;4819698;29;20085;-88
2023/12/05 06:05:48;;;;;;;31.80;18.92;;;;;;;;;;4820003;29;20482;-88
2023/12/05 06:08:15;;;;;;;34.50;19.90;;;;;;;;;;4804809;29;20391;-89
2023/12/05 06:10:42;;;;;;;33.63;18.58;;;;;;;;;;4804500;29;20050;-89
2023/12/05 06:13:07;;;;;;;32.67;18.48;;;;;;;;;;4803968;29;20046;-89
2023/12/05 06:15:33;;;;;;;34.60;18.73;;;;;;;;;;4819030;29;20076;-88
2023/12/05 06:17:59;;;;;;;30.70;18.10;;;;;;;;;;4829428;29;20046;-88
2023/12/05 06:20:26;;;;;;;34.10;19.52;;;;;;;;;;4819137;29;20049;-88
2023/12/05 06:22:52;;;;;;;31.58;18.98;;;;;;;;;;4803919;29;20525;-88
2023/12/05 06:25:18;;;;;;;34.47;18.00;;;;;;;;;;4818889;29;20046;-88
2023/12/05 06:27:46;;;;;;;33.67;19.45;;;;;;;;;;4803733;29;20060;-88
2023/12/05 06:30:12;;;;;;;33.00;18.85;;;;;;;;;;4803580;29;20049;-88
2023/12/05 06:32:38;;;;;;;34.13;19.15;;;;;;;;;;4835395;29;20045;-88
2023/12/05 06:35:04;;;;;;;34.97;18.85;;;;;;;;;;4811749;29;20045;-91
2023/12/05 06:37:30;;;;;;;33.97;18.73;;;;;;;;;;4819275;29;20041;-87
2023/12/05 06:39:57;;;;;;;35.13;18.02;;;;;;;;;;4810653;29;20072;-88
2023/12/05 06:42:23;;;;;;;30.27;17.25;;;;;;;;;;4831619;29;20077;-89
2023/12/05 06:44:49;;;;;;;35.90;20.52;;;;;;;;;;4803647;29;20058;-87
2023/12/05 06:47:15;;;;;;;35.83;20.38;;;;;;;;;;4807461;29;20765;-87
2023/12/05 06:49:44;;;;;;;31.00;17.45;;;;;;;;;;4799183;29;20045;-88
2023/12/05 06:52:11;;;;;;;31.95;17.85;;;;;;;;;;4814866;29;20045;-87
2023/12/05 06:54:38;;;;;;;31.23;18.13;;;;;;;;;;4835959;29;20054;-87
2023/12/05 06:57:04;;;;;;;31.13;18.25;;;;;;;;;;4805583;29;20038;-88
2023/12/05 06:59:30;;;;;;;34.63;17.45;;;;;;;;;;4821834;29;20042;-87
2023/12/05 07:01:56;;;;;;;29.48;16.38;;;;;;;;;;4806017;29;20053;-87
2023/12/05 07:04:22;;;;;;;34.20;18.48;;;;;;;;;;4834246;29;20581;-88
2023/12/05 07:06:48;;;;;;;33.63;18.42;;;;;;;;;;4823208;29;20271;-87
2023/12/05 07:09:14;;;;;;;29.17;18.08;;;;;;;;;;4815796;29;20061;-87
2023/12/05 07:11:40;;;;;;;30.55;17.20;;;;;;;;;;4803105;29;20515;-87
2023/12/05 07:14:08;;;;;;;33.00;18.50;;;;;;;;;;4806592;29;20054;-89
2023/12/05 07:16:36;;;;;;;31.52;17.38;;;;;;;;;;4803327;29;20076;-88
2023/12/05 07:19:02;;;;;;;30.98;17.85;;;;;;;;;;4803598;29;20057;-89
2023/12/05 07:21:28;;;;;;;32.97;16.52;;;;;;;;;;4803338;29;20157;-89
2023/12/05 07:23:56;;;;;;;28.73;16.35;;;;;;;;;;4801154;29;20081;-90
2023/12/05 07:26:22;;;;;;;32.00;17.75;;;;;;;;;;4806695;29;20516;-90
2023/12/05 07:28:48;;;;;;;33.65;18.67;;;;;;;;;;4785027;29;20058;-89
2023/12/05 07:31:15;;;;;;;29.38;17.17;;;;;;;;;;4807790;29;20065;-87
2023/12/05 07:33:41;;;;;;;32.38;18.42;;;;;;;;;;4792204;29;20134;-88
2023/12/05 07:36:07;;;;;;;31.48;17.20;;;;;;;;;;4807439;29;20046;-89
2023/12/05 07:38:33;;;;;;;32.33;16.70;;;;;;;;;;4844013;29;20445;-88
2023/12/05 07:40:59;;;;;;;31.33;17.42;;;;;;;;;;4819427;29;20105;-89
2023/12/05 07:43:25;;;;;;;30.02;17.20;;;;;;;;;;4802704;29;20057;-87
2023/12/05 07:45:51;;;;;;;31.83;15.70;;;;;;;;;;4819448;29;20385;-88
2023/12/05 07:48:17;;;;;;;31.60;16.55;;;;;;;;;;4849913;29;20057;-87
2023/12/05 07:50:43;;;;;;;33.63;17.58;;;;;;;;;;4834109;29;20046;-87
2023/12/05 07:53:10;;;;;;;31.88;17.27;;;;;;;;;;4802503;29;20053;-88
2023/12/05 07:55:36;;;;;;;30.20;16.70;;;;;;;;;;4803003;29;20050;-88
2023/12/05 07:58:02;;;;;;;30.77;16.95;;;;;;;;;;4817598;29;20568;-88
2023/12/05 08:00:28;;;;;;;32.13;17.50;;;;;;;;;;4804762;29;21284;-87
2023/12/05 08:02:54;;;;;;;27.08;15.57;;;;;;;;;;4804470;29;20053;-88
2023/12/05 08:05:20;;;;;;;32.28;16.23;;;;;;;;;;4801021;29;20061;-85
2023/12/05 08:07:46;;;;;;;28.15;17.13;;;;;;;;;;4803194;29;20122;-86
2023/12/05 08:10:12;;;;;;;33.92;17.77;;;;;;;;;;4783958;29;20054;-87
2023/12/05 08:12:38;;;;;;;31.40;17.77;;;;;;;;;;4798970;29;20058;-88
2023/12/05 08:15:05;;;;;;;31.20;18.50;;;;;;;;;;4795821;29;20042;-86
2023/12/05 08:17:31;;;;;;;33.42;17.27;;;;;;;;;;4801905;29;20110;-86
2023/12/05 08:19:57;;;;;;;36.00;18.02;;;;;;;;;;4817494;29;20769;-86
2023/12/05 08:22:25;;;;;;;31.65;17.85;;;;;;;;;;4799915;29;20052;-86
2023/12/05 08:24:51;;;;;;;34.10;17.08;;;;;;;;;;4819384;29;20111;-87
2023/12/05 08:27:17;;;;;;;32.13;17.40;;;;;;;;;;4803436;29;20046;-87
2023/12/05 08:29:43;;;;;;;33.65;17.88;;;;;;;;;;4812881;29;20501;-88
2023/12/05 08:32:10;;;;;;;36.30;18.58;;;;;;;;;;4805338;29;20054;-86
2023/12/05 08:34:36;;;;;;;33.22;17.65;;;;;;;;;;4794120;29;20050;-87
2023/12/05 08:37:02;;;;;;;31.70;17.35;;;;;;;;;;4821170;29;20050;-87
2023/12/05 08:39:28;;;;;;;30.13;16.98;;;;;;;;;;4806943;29;20054;-87
2023/12/05 08:41:57;;;;;;;31.52;17.80;;;;;;;;;;4805342;29;20046;-87
2023/12/05 08:44:23;;;;;;;33.38;18.52;;;;;;;;;;4819532;29;20154;-86
2023/12/05 08:46:49;;;;;;;33.83;18.45;;;;;;;;;;4796104;29;20078;-88
2023/12/05 08:49:15;;;;;;;32.40;17.88;;;;;;;;;;4808593;29;20645;-86
2023/12/05 08:51:41;;;;;;;33.70;17.70;;;;;;;;;;4804596;29;20056;-86
2023/12/05 08:54:10;;;;;;;31.30;17.40;;;;;;;;;;4807664;29;20057;-90
2023/12/05 08:56:36;;;;;;;36.30;18.63;;;;;;;;;;4806313;29;20049;-88
2023/12/05 08:59:02;;;;;;;38.22;19.70;;;;;;;;;;4807819;29;20054;-87
2023/12/05 09:01:28;;;;;;;37.50;20.35;;;;;;;;;;4806177;29;20054;-87
2023/12/05 09:03:55;;;;;;;35.08;18.25;;;;;;;;;;4820288;29;20046;-89
2023/12/05 09:06:20;;;;;;;35.45;19.67;;;;;;;;;;4800384;29;20054;-86
2023/12/05 09:08:47;;;;;;;34.88;18.15;;;;;;;;;;4816982;29;20088;-86
2023/12/05 09:11:13;;;;;;;34.22;19.10;;;;;;;;;;4803387;29;20065;-87
2023/12/05 09:13:39;;;;;;;36.65;19.45;;;;;;;;;;4805703;29;20068;-86
2023/12/05 09:16:05;;;;;;;33.63;19.20;;;;;;;;;;4805782;29;20046;-88
2023/12/05 09:18:31;;;;;;;35.25;18.77;;;;;;;;;;4803142;29;20081;-87
2023/12/05 09:20:58;;;;;;;33.75;17.83;;;;;;;;;;4805606;29;20050;-87
2023/12/05 09:23:24;;;;;;;35.72;19.38;;;;;;;;;;4811071;29;20821;-86
2023/12/05 09:25:50;;;;;;;35.58;19.20;;;;;;;;;;4805151;29;20049;-87
2023/12/05 09:28:16;;;;;;;34.80;18.35;;;;;;;;;;4809794;29;20547;-87
2023/12/05 09:30:42;;;;;;;36.17;19.10;;;;;;;;;;4819640;29;20049;-88
2023/12/05 09:33:08;;;;;;;35.15;19.20;;;;;;;;;;4818409;29;20042;-87
2023/12/05 09:35:34;;;;;;;37.10;19.15;;;;;;;;;;4818526;29;20060;-88
2023/12/05 09:38:00;;;;;;;37.97;20.65;;;;;;;;;;4819203;29;20053;-87
2023/12/05 09:40:27;;;;;;;35.53;18.52;;;;;;;;;;4803046;29;20152;-87
2023/12/05 09:42:55;;;;;;;37.85;19.83;;;;;;;;;;4802393;29;20049;-87
2023/12/05 09:45:22;;;;;;;37.47;18.65;;;;;;;;;;4823478;29;20060;-86
2023/12/05 09:47:50;;;;;;;39.00;19.70;;;;;;;;;;4821081;29;20099;-88
2023/12/05 09:50:16;;;;;;;35.38;19.05;;;;;;;;;;4820471;29;20053;-87
2023/12/05 09:52:44;;;;;;;40.95;19.83;;;;;;;;;;4810462;29;20769;-87
2023/12/05 09:55:11;;;;;;;38.47;19.08;;;;;;;;;;4806647;29;20505;-87
2023/12/05 09:57:38;;;;;;;35.65;19.80;;;;;;;;;;4804210;29;20061;-87
2023/12/05 10:00:05;;;;;;;37.83;19.20;;;;;;;;;;4817786;29;20047;-87
2023/12/05 10:02:31;;;;;;;36.60;18.70;;;;;;;;;;4804221;29;20041;-87
2023/12/05 10:05:04;;;;;;;35.35;18.88;;;;;;;;;;4815808;29;20056;-87
2023/12/05 10:07:31;;;;;;;32.60;18.35;;;;;;;;;;4814905;29;20137;-86
2023/12/05 10:09:57;;;;;;;35.00;18.13;;;;;;;;;;4803215;29;20516;-86
2023/12/05 10:12:23;;;;;;;38.85;19.65;;;;;;;;;;4803634;29;20116;-86
2023/12/05 10:14:50;;;;;;;34.30;18.42;;;;;;;;;;4804897;29;20133;-86
2023/12/05 10:17:16;;;;;;;39.83;19.08;;;;;;;;;;4818657;29;20050;-87
2023/12/05 10:19:42;;;;;;;38.83;19.13;;;;;;;;;;4822888;29;20053;-86
2023/12/05 10:22:09;;;;;;;36.92;19.27;;;;;;;;;;4819488;29;20050;-91
2023/12/05 10:24:45;;;;;;;44.17;19.50;;;;;;;;;;4801226;29;20046;-87
2023/12/05 10:27:11;;;;;;;38.42;19.85;;;;;;;;;;4807669;29;20057;-87
2023/12/05 10:29:39;;;;;;;41.03;20.08;;;;;;;;;;4799702;29;20050;-88
2023/12/05 10:32:05;;;;;;;40.70;19.52;;;;;;;;;;4800878;29;20505;-88
2023/12/05 10:34:31;;;;;;;38.85;19.25;;;;;;;;;;4812317;29;20041;-87
2023/12/05 10:37:03;;;;;;;34.78;19.02;;;;;;;;;;4816412;29;20054;-87
2023/12/05 10:39:36;;;;;;;38.63;19.48;;;;;;;;;;4818010;29;20469;-87
2023/12/05 10:42:02;;;;;;;38.30;21.38;;;;;;;;;;4818026;29;20049;-87
2023/12/05 10:44:28;;;;;;;38.25;20.35;;;;;;;;;;4819035;29;20571;-87
2023/12/05 10:46:57;;;;;;;37.53;20.58;;;;;;;;;;4815739;29;20105;-87
2023/12/05 10:49:23;;;;;;;39.28;20.35;;;;;;;;;;4817220;29;21002;-88
2023/12/05 10:51:50;;;;;;;39.72;20.67;;;;;;;;;;4805662;29;20057;-87
2023/12/05 10:54:17;;;;;;;40.00;20.13;;;;;;;;;;4822804;29;20054;-87
2023/12/05 10:56:56;;;;;;;39.95;20.45;;;;;;;;;;4819261;29;20046;-87
2023/12/05 10:59:22;;;;;;;36.30;20.48;;;;;;;;;;4802136;29;20037;-86
2023/12/05 11:01:49;;;;;;;38.58;19.52;;;;;;;;;;4809098;29;20046;-87
2023/12/05 11:04:16;;;;;;;32.85;19.00;;;;;;;;;;4806938;29;20091;-87
2023/12/05 11:06:42;;;;;;;36.83;19.95;;;;;;;;;;4805144;29;20818;-88
2023/12/05 11:09:09;;;;;;;35.40;20.10;;;;;;;;;;4822626;29;20195;-88
2023/12/05 11:11:37;;;;;;;37.97;20.20;;;;;;;;;;4809639;29;20046;-88
2023/12/05 11:14:04;;;;;;;35.22;19.95;;;;;;;;;;4797683;29;20046;-88
2023/12/05 11:16:35;;;;;;;39.30;20.65;;;;;;;;;;4828834;29;20191;-88
2023/12/05 11:19:22;;;;;;;35.28;19.75;;;;;;;;;;4815925;29;20077;-88
2023/12/05 11:21:49;;;;;;;36.78;19.38;;;;;;;;;;4804759;29;20576;-88
2023/12/05 11:24:34;;;;;;;33.15;18.65;;;;;;;;;;4833679;29;20437;-88
2023/12/05 11:27:16;;;;;;;36.50;20.45;;;;;;;;;;4823822;29;20508;-88
2023/12/05 11:29:45;;;;;;;37.25;18.73;;;;;;;;;;4836529;29;20690;-88
2023/12/05 11:32:19;;;;;;;35.65;21.90;;;;;;;;;;4821441;29;20056;-88
2023/12/05 11:34:56;;;;;;;36.97;18.52;;;;;;;;;;4796879;29;20098;-88
2023/12/05 11:37:23;;;;;;;36.90;18.65;;;;;;;;;;4810773;29;20058;-88
2023/12/05 11:39:50;;;;;;;37.47;18.80;;;;;;;;;;4799750;29;20054;-86
2023/12/05 11:42:16;;;;;;;40.08;20.10;;;;;;;;;;4803631;29;20037;-86
2023/12/05 11:44:43;;;;;;;36.90;20.05;;;;;;;;;;4827932;29;20054;-86
2023/12/05 11:47:25;;;;;;;35.90;18.38;;;;;;;;;;4809002;29;20053;-86
2023/12/05 11:49:53;;;;;;;36.35;20.00;;;;;;;;;;4817869;29;20054;-87
2023/12/05 11:52:20;;;;;;;37.25;18.55;;;;;;;;;;4787532;29;20050;-87
2023/12/05 11:54:48;;;;;;;40.15;20.05;;;;;;;;;;4823326;29;20049;-86
2023/12/05 11:57:15;;;;;;;36.83;19.52;;;;;;;;;;4799659;29;20047;-87
2023/12/05 11:59:42;;;;;;;39.35;20.13;;;;;;;;;;4806742;29;20045;-87
2023/12/05 12:02:08;;;;;;;37.85;20.13;;;;;;;;;;4802159;29;20042;-87
2023/12/05 12:07:57;;;;;;;36.45;19.17;;;;;;;;;;4819154;29;20146;-87
2023/12/05 12:10:24;;;;;;;36.83;19.73;;;;;;;;;;4807425;29;20045;-88
2023/12/05 12:12:54;;;;;;;37.15;18.98;;;;;;;;;;4806501;29;20050;-87
2023/12/05 12:15:23;;;;;;;36.33;18.40;;;;;;;;;;4806217;29;20053;-87
2023/12/05 12:17:49;;;;;;;35.05;18.70;;;;;;;;;;4821029;29;20564;-87
2023/12/05 12:20:16;;;;;;;37.25;19.42;;;;;;;;;;4817859;29;20046;-87
2023/12/05 12:22:43;;;;;;;36.55;19.10;;;;;;;;;;4821905;29;20098;-88
2023/12/05 12:25:11;;;;;;;34.95;19.80;;;;;;;;;;4806132;29;20049;-87
2023/12/05 12:27:38;;;;;;;34.78;18.40;;;;;;;;;;4792930;29;20072;-86
2023/12/05 12:30:07;;;;;;;37.38;18.73;;;;;;;;;;4818506;29;20077;-86
2023/12/05 12:32:33;;;;;;;38.95;19.88;;;;;;;;;;4806109;29;20053;-86
2023/12/05 12:35:00;;;;;;;38.42;19.73;;;;;;;;;;4828275;29;20101;-87
2023/12/05 12:37:26;;;;;;;36.47;18.13;;;;;;;;;;4810165;29;20052;-86
2023/12/05 12:39:52;;;;;;;35.00;19.02;;;;;;;;;;4816154;29;20486;-87
2023/12/05 12:42:18;;;;;;;36.28;18.88;;;;;;;;;;4798663;29;20052;-87
2023/12/05 12:44:45;;;;;;;36.50;19.00;;;;;;;;;;4805167;29;20054;-87
2023/12/05 12:47:13;;;;;;;38.08;19.25;;;;;;;;;;4805604;29;20056;-87
2023/12/05 12:49:38;;;;;;;41.97;20.55;;;;;;;;;;4807617;29;20190;-86
2023/12/05 12:52:05;;;;;;;38.08;19.30;;;;;;;;;;4803275;29;20165;-86
2023/12/05 12:54:31;;;;;;;35.10;19.73;;;;;;;;;;4802699;29;20053;-86
2023/12/05 12:56:57;;;;;;;43.80;20.60;;;;;;;;;;4832227;29;20049;-86
2023/12/05 12:59:24;;;;;;;37.67;19.02;;;;;;;;;;4807737;29;20099;-87
2023/12/05 13:01:50;;;;;;;36.85;19.23;;;;;;;;;;4807095;29;20049;-85
2023/12/05 13:04:17;;;;;;;37.50;19.63;;;;;;;;;;4806295;29;20049;-85
2023/12/05 13:06:47;;;;;;;39.97;20.00;;;;;;;;;;4841471;29;20615;-85
2023/12/05 13:09:15;;;;;;;41.55;19.83;;;;;;;;;;4828590;29;20058;-85
2023/12/05 13:11:44;;;;;;;37.45;18.90;;;;;;;;;;4825326;29;20049;-85
2023/12/05 13:14:12;;;;;;;36.78;19.20;;;;;;;;;;4827692;29;20057;-85
2023/12/05 13:16:42;;;;;;;39.13;20.70;;;;;;;;;;4808172;29;20050;-85
2023/12/05 13:19:20;;;;;;;35.72;18.83;;;;;;;;;;4813611;29;20049;-85
2023/12/05 13:21:46;;;;;;;38.90;21.13;;;;;;;;;;4804806;29;20050;-86
2023/12/05 13:24:12;;;;;;;36.65;19.35;;;;;;;;;;4821925;29;20050;-88
2023/12/05 13:26:38;;;;;;;39.67;19.67;;;;;;;;;;4820564;29;20051;-86
2023/12/05 13:29:04;;;;;;;37.33;20.38;;;;;;;;;;4817076;29;20053;-86
2023/12/05 13:31:32;;;;;;;39.67;19.52;;;;;;;;;;4813605;29;20061;-86
2023/12/05 13:33:58;;;;;;;42.00;19.55;;;;;;;;;;4830172;29;20602;-86
2023/12/05 13:36:25;;;;;;;36.97;18.80;;;;;;;;;;4825077;29;20666;-86
2023/12/05 13:38:53;;;;;;;41.30;19.67;;;;;;;;;;4809929;29;20576;-86
2023/12/05 13:41:19;;;;;;;36.60;18.88;;;;;;;;;;4804573;29;20058;-86
2023/12/05 13:43:45;;;;;;;42.00;19.45;;;;;;;;;;4819418;29;20509;-86
2023/12/05 13:46:14;;;;;;;41.05;20.33;;;;;;;;;;4801536;29;20057;-86
2023/12/05 13:48:40;;;;;;;40.78;19.65;;;;;;;;;;4796233;29;20391;-86
2023/12/05 13:51:07;;;;;;;37.90;19.50;;;;;;;;;;4804120;29;20513;-86
2023/12/05 13:53:33;;;;;;;36.50;18.27;;;;;;;;;;4819290;29;20064;-86
2023/12/05 13:55:59;;;;;;;38.88;19.25;;;;;;;;;;4821747;29;20583;-86
2023/12/05 13:58:25;;;;;;;40.33;19.77;;;;;;;;;;4791269;29;20505;-87
2023/12/05 14:00:51;;;;;;;41.17;19.17;;;;;;;;;;4813769;29;20056;-86
2023/12/05 14:03:17;;;;;;;39.83;19.42;;;;;;;;;;4812473;29;20085;-86
2023/12/05 14:05:43;;;;;;;37.65;18.88;;;;;;;;;;4830116;29;20102;-85
2023/12/05 14:08:09;;;;;;;38.88;19.25;;;;;;;;;;4803376;29;20069;-86
2023/12/05 14:10:37;;;;;;;40.80;20.27;;;;;;;;;;4818855;29;20053;-86
2023/12/05 14:13:03;;;;;;;43.80;19.52;;;;;;;;;;4819274;29;20065;-86
2023/12/05 14:15:29;;;;;;;40.92;21.02;;;;;;;;;;4803442;29;20050;-86
2023/12/05 14:17:56;;;;;;;41.90;19.65;;;;;;;;;;4817370;29;20050;-86